createdAt,value
2023-01-25T00:01:26.258Z,-0.3
2023-01-25T00:11:27.151Z,-0.3
2023-01-25T00:21:27.767Z,-0.4
2023-01-25T00:31:28.551Z,-0.3
2023-01-25T00:41:29.232Z,-0.5
2023-01-25T00:51:30.159Z,-0.4
2023-01-25T01:01:30.845Z,-0.4
2023-01-25T01:21:32.387Z,-0.5
2023-01-25T01:31:32.527Z,-0.5
2023-01-25T01:41:33.294Z,-0.5
2023-01-25T01:51:33.391Z,-0.5
2023-01-25T02:21:35.060Z,-0.6
2023-01-25T02:31:35.443Z,-0.6
2023-01-25T02:51:36.735Z,-0.5
2023-01-25T03:01:36.859Z,-0.6
2023-01-25T03:21:37.340Z,-0.8
2023-01-25T03:31:38.147Z,-0.8
2023-01-25T03:41:38.854Z,-0.9
2023-01-25T03:51:39.827Z,-0.9
2023-01-25T04:01:40.678Z,-0.9
2023-01-25T04:11:41.668Z,-0.9
2023-01-25T04:31:42.627Z,-1
2023-01-25T04:41:44.608Z,-1.2
2023-01-25T04:51:43.413Z,-1.1
2023-01-25T05:01:44.165Z,-1.1
2023-01-25T05:11:44.168Z,-1
2023-01-25T05:21:45.249Z,-1.1
2023-01-25T05:31:46.315Z,-1.2
2023-01-25T05:41:46.441Z,-1.2
2023-01-25T05:51:47.279Z,-1.2
2023-01-25T06:11:48.859Z,-1.2
2023-01-25T06:21:49.442Z,-1.3
2023-01-25T06:31:50.238Z,-1.4
2023-01-25T06:41:50.199Z,-1.3
2023-01-25T06:51:51.267Z,-1.3
2023-01-25T07:01:51.426Z,-1.5
2023-01-25T07:11:51.791Z,-1.4
2023-01-25T07:21:52.472Z,-1.5
2023-01-25T07:31:53.245Z,-1.5
2023-01-25T07:41:53.426Z,-1.4
2023-01-25T08:11:55.557Z,-1.6
2023-01-25T08:21:56.894Z,-1.6
2023-01-25T08:31:57.271Z,-1.5
2023-01-25T08:51:57.944Z,-1.4
2023-01-25T09:01:59.474Z,-1.5
2023-01-25T09:11:59.338Z,-1.5
2023-01-25T09:21:59.838Z,-1.5
2023-01-25T09:32:00.438Z,-1.4
2023-01-25T09:42:06.530Z,-1.4
2023-01-25T09:52:02.289Z,-1.3
2023-01-25T10:02:03.128Z,-1.3
2023-01-25T10:12:03.135Z,-1.3
2023-01-25T10:22:04.130Z,-1.1
2023-01-25T10:32:04.922Z,-1.1
2023-01-25T10:42:05.601Z,-1.1
2023-01-25T10:52:06.116Z,-1.1
2023-01-25T11:02:06.309Z,-1.1
2023-01-25T11:12:06.626Z,-1.1
2023-01-25T11:22:06.793Z,-1.2
2023-01-25T11:32:07.572Z,-1.1
2023-01-25T11:42:08.548Z,-1.1
2023-01-25T12:02:10.034Z,-1.2
2023-01-25T12:12:11.009Z,-1.1
2023-01-25T12:22:11.972Z,-1.2
2023-01-25T12:32:12.424Z,-0.8
2023-01-25T12:42:13.460Z,-0.6
2023-01-25T12:52:13.854Z,-0.7
2023-01-25T13:02:14.533Z,-0.8
2023-01-25T13:12:15.375Z,-0.6
2023-01-25T13:22:16.253Z,-0.7
2023-01-25T13:32:17.220Z,-0.8
2023-01-25T13:32:56.888Z,-0.8
2023-01-25T13:42:24.097Z,-0.8
2023-01-25T13:52:24.300Z,-0.8
2023-01-25T14:02:24.919Z,-0.8
2023-01-25T14:12:25.234Z,-0.8
2023-01-25T14:22:26.119Z,-0.8
2023-01-25T14:32:26.923Z,-0.9
2023-01-25T14:42:27.381Z,-0.9
2023-01-25T14:52:27.552Z,-1
2023-01-25T15:12:28.817Z,-0.9
2023-01-25T15:42:29.932Z,-0.9
2023-01-25T15:52:30.432Z,-0.9
2023-01-25T16:02:31.090Z,-0.9
2023-01-25T16:12:31.152Z,-0.8
2023-01-25T16:22:31.808Z,-0.9
2023-01-25T17:12:34.668Z,-1
2023-01-25T17:22:34.863Z,-1
2023-01-25T17:52:36.699Z,-1.2
2023-01-25T18:52:41.151Z,-1.3
2023-01-25T20:32:46.948Z,-1.6
2023-01-25T21:22:50.574Z,-1.4
2023-01-25T21:42:51.895Z,-1.4
2023-01-25T21:52:52.105Z,-1.6
2023-01-25T22:22:53.573Z,-1.6
2023-01-25T22:52:55.556Z,-1.7
2023-01-25T23:02:56.100Z,-1.8
2023-01-25T23:12:56.786Z,-1.9
2023-01-25T23:42:58.471Z,-2
